createdAt,value
2023-08-08T00:00:10.921Z,100625.88
2023-08-08T00:02:40.084Z,100629.88
2023-08-08T00:05:11.030Z,100628.75
2023-08-08T00:07:40.327Z,100629.75
2023-08-08T00:10:10.344Z,100635.97
2023-08-08T00:12:39.453Z,100621.88
2023-08-08T00:15:09.594Z,100619.38
2023-08-08T00:17:38.839Z,100616.63
2023-08-08T00:20:11.032Z,100622.16
2023-08-08T00:22:40.393Z,100604.75
2023-08-08T00:25:10.120Z,100607.63
2023-08-08T00:27:43.200Z,100610.38
2023-08-08T00:30:14.323Z,100602.22
2023-08-08T00:32:43.500Z,100590.03
2023-08-08T00:35:14.021Z,100584.06
2023-08-08T00:37:43.130Z,100585.19
2023-08-08T00:40:12.713Z,100578.69
2023-08-08T00:42:41.970Z,100571.75
2023-08-08T00:45:11.504Z,100576.72
2023-08-08T00:47:40.760Z,100578.22
2023-08-08T00:50:13.364Z,100579.03
2023-08-08T00:52:45.278Z,100577.69
2023-08-08T00:55:15.654Z,100585.31
2023-08-08T00:57:45.212Z,100586.22
2023-08-08T01:00:14.720Z,100584.31
2023-08-08T01:02:44.098Z,100573.25
2023-08-08T01:05:15.027Z,100571.75
2023-08-08T01:07:52.516Z,100578.38
2023-08-08T01:10:27.390Z,100577.13
2023-08-08T01:13:02.565Z,100592.59
2023-08-08T01:15:36.654Z,100592.59
2023-08-08T01:18:07.604Z,100596.19
2023-08-08T01:20:39.472Z,100592.19
2023-08-08T01:23:14.919Z,100588.47
2023-08-08T01:25:48.001Z,100590.25
2023-08-08T01:28:17.209Z,100587.19
2023-08-08T01:30:47.556Z,100582.78
2023-08-08T01:33:16.859Z,100568.25
2023-08-08T01:35:48.331Z,100584.03
2023-08-08T01:38:22.579Z,100571.44
2023-08-08T01:40:53.074Z,100578.19
2023-08-08T01:43:24.081Z,100572.09
2023-08-08T01:45:54.395Z,100569.56
2023-08-08T01:48:24.529Z,100570.16
2023-08-08T01:50:54.768Z,100572.50
2023-08-08T01:53:23.999Z,100563.00
2023-08-08T01:55:54.576Z,100567.53
2023-08-08T01:58:23.730Z,100559.78
2023-08-08T02:00:52.881Z,100555.06
2023-08-08T02:03:22.232Z,100554.13
2023-08-08T02:05:51.503Z,100542.78
2023-08-08T02:08:20.649Z,100544.31
2023-08-08T02:10:49.790Z,100546.09
2023-08-08T02:13:20.415Z,100544.97
2023-08-08T02:15:50.924Z,100534.97
2023-08-08T02:18:20.040Z,100548.13
2023-08-08T02:20:49.261Z,100543.56
2023-08-08T02:23:18.388Z,100543.41
2023-08-08T02:25:47.638Z,100539.72
2023-08-08T02:28:16.768Z,100545.66
2023-08-08T02:30:48.601Z,100538.44
2023-08-08T02:33:18.203Z,100543.56
2023-08-08T02:35:47.432Z,100537.78
2023-08-08T02:38:17.042Z,100540.25
2023-08-08T02:40:46.215Z,100547.59
2023-08-08T02:43:15.340Z,100532.66
2023-08-08T02:45:44.569Z,100545.13
2023-08-08T02:48:15.160Z,100533.25
2023-08-08T02:50:44.256Z,100532.03
2023-08-08T02:53:13.447Z,100541.72
2023-08-08T02:55:47.066Z,100542.25
2023-08-08T02:58:16.707Z,100537.69
2023-08-08T03:00:46.578Z,100537.97
2023-08-08T03:03:19.221Z,100524.00
2023-08-08T03:05:49.560Z,100527.16
2023-08-08T03:08:20.884Z,100513.84
2023-08-08T03:10:50.148Z,100516.47
2023-08-08T03:13:20.868Z,100512.75
2023-08-08T03:15:51.436Z,100505.41
2023-08-08T03:18:23.833Z,100502.59
2023-08-08T03:20:53.030Z,100496.00
2023-08-08T03:23:24.284Z,100510.97
2023-08-08T03:25:54.391Z,100506.53
2023-08-08T03:28:23.523Z,100501.53
2023-08-08T03:30:55.368Z,100496.00
2023-08-08T03:33:26.598Z,100496.69
2023-08-08T03:35:55.789Z,100491.56
2023-08-08T03:38:24.993Z,100486.28
2023-08-08T03:40:54.191Z,100496.69
2023-08-08T03:43:25.581Z,100496.16
2023-08-08T03:45:54.704Z,100505.00
2023-08-08T03:48:25.191Z,100509.00
2023-08-08T03:50:54.309Z,100504.25
2023-08-08T03:53:23.488Z,100500.66
2023-08-08T03:55:52.681Z,100495.28
2023-08-08T03:58:21.913Z,100487.59
2023-08-08T04:00:51.125Z,100491.50
2023-08-08T04:03:20.455Z,100493.53
2023-08-08T04:05:51.123Z,100496.16
2023-08-08T04:08:22.365Z,100486.78
2023-08-08T04:10:52.341Z,100495.28
2023-08-08T04:13:21.526Z,100493.91
2023-08-08T04:15:52.793Z,100497.75
2023-08-08T04:18:22.137Z,100511.75
2023-08-08T04:20:52.702Z,100506.31
2023-08-08T04:23:23.592Z,100495.28
2023-08-08T04:25:52.697Z,100492.06
2023-08-08T04:28:21.963Z,100487.78
2023-08-08T04:30:51.170Z,100493.03
2023-08-08T04:33:20.308Z,100487.25
2023-08-08T04:35:50.842Z,100490.97
2023-08-08T04:38:19.961Z,100481.16
2023-08-08T04:40:49.121Z,100483.47
2023-08-08T04:43:18.226Z,100478.13
2023-08-08T04:45:47.502Z,100482.81
2023-08-08T04:48:16.650Z,100480.72
2023-08-08T04:50:45.746Z,100469.94
2023-08-08T04:53:16.450Z,100479.94
2023-08-08T04:55:45.568Z,100454.78
2023-08-08T04:58:14.796Z,100466.34
2023-08-08T05:00:44.157Z,100463.06
2023-08-08T05:03:13.770Z,100469.28
2023-08-08T05:05:43.401Z,100466.50
2023-08-08T05:08:13.671Z,100458.91
2023-08-08T05:10:45.340Z,100462.56
2023-08-08T05:13:16.527Z,100450.78
2023-08-08T05:15:45.888Z,100457.25
2023-08-08T05:18:15.415Z,100469.72
2023-08-08T05:20:44.565Z,100454.50
2023-08-08T05:23:13.657Z,100446.81
2023-08-08T05:25:44.443Z,100447.31
2023-08-08T05:28:13.658Z,100447.59
2023-08-08T05:30:42.785Z,100448.28
2023-08-08T05:33:11.995Z,100448.13
2023-08-08T05:35:41.221Z,100445.00
2023-08-08T05:38:10.378Z,100436.94
2023-08-08T05:40:39.689Z,100439.03
2023-08-08T05:43:10.290Z,100437.63
2023-08-08T05:45:39.468Z,100439.94
2023-08-08T05:48:10.890Z,100437.28
2023-08-08T05:50:40.249Z,100439.03
2023-08-08T05:53:09.547Z,100438.66
2023-08-08T05:55:38.712Z,100442.03
2023-08-08T05:58:09.227Z,100445.34
2023-08-08T06:00:38.441Z,100446.34
2023-08-08T06:03:07.886Z,100439.72
2023-08-08T06:05:37.065Z,100424.28
2023-08-08T06:08:08.836Z,100435.13
2023-08-08T06:10:38.015Z,100440.72
2023-08-08T06:13:07.130Z,100430.22
2023-08-08T06:15:37.652Z,100434.31
2023-08-08T06:18:08.057Z,100427.06
2023-08-08T06:20:37.617Z,100418.28
2023-08-08T06:23:07.033Z,100413.78
2023-08-08T06:25:36.287Z,100428.03
2023-08-08T06:28:05.864Z,100427.19
2023-08-08T06:30:36.626Z,100432.28
2023-08-08T06:33:05.963Z,100431.19
2023-08-08T06:35:35.159Z,100425.25
2023-08-08T06:38:04.285Z,100426.38
2023-08-08T06:40:33.451Z,100424.16
2023-08-08T06:43:02.520Z,100423.81
2023-08-08T06:45:31.828Z,100434.19
2023-08-08T06:48:02.523Z,100420.19
2023-08-08T06:50:31.872Z,100434.13
2023-08-08T06:53:00.964Z,100431.78
2023-08-08T06:55:30.163Z,100426.19
2023-08-08T06:57:59.324Z,100428.84
2023-08-08T07:00:29.304Z,100418.84
2023-08-08T07:02:59.897Z,100435.34
2023-08-08T07:05:32.548Z,100432.13
2023-08-08T07:08:01.689Z,100420.75
2023-08-08T07:10:31.472Z,100411.81
2023-08-08T07:13:00.717Z,100409.13
2023-08-08T07:15:30.059Z,100411.41
2023-08-08T07:17:59.214Z,100413.19
2023-08-08T07:20:28.437Z,100398.75
2023-08-08T07:23:00.835Z,100388.09
2023-08-08T07:25:30.298Z,100394.56
2023-08-08T07:27:59.387Z,100393.81
2023-08-08T07:30:28.777Z,100409.75
2023-08-08T07:32:57.909Z,100406.16
2023-08-08T07:35:27.103Z,100393.41
2023-08-08T07:37:56.518Z,100401.19
2023-08-08T07:40:27.259Z,100379.88
2023-08-08T07:42:56.388Z,100377.84
2023-08-08T07:45:25.570Z,100377.31
2023-08-08T07:47:54.722Z,100386.31
2023-08-08T07:50:23.860Z,100385.44
2023-08-08T07:52:52.992Z,100390.84
2023-08-08T07:55:22.208Z,100384.00
2023-08-08T07:57:52.792Z,100374.59
2023-08-08T08:00:22.924Z,100359.56
2023-08-08T08:02:52.177Z,100372.94
2023-08-08T08:05:21.725Z,100360.84
2023-08-08T08:07:51.089Z,100361.59
2023-08-08T08:10:20.298Z,100358.84
2023-08-08T08:12:49.540Z,100378.22
2023-08-08T08:15:20.099Z,100366.44
2023-08-08T08:17:49.308Z,100345.84
2023-08-08T08:20:18.883Z,100369.50
2023-08-08T08:22:48.029Z,100358.50
2023-08-08T08:25:17.457Z,100394.09
2023-08-08T08:27:46.562Z,100392.06
2023-08-08T08:30:17.530Z,100420.34
2023-08-08T08:32:48.309Z,100434.13
2023-08-08T08:35:17.805Z,100435.78
2023-08-08T08:37:47.089Z,100434.78
2023-08-08T08:40:16.793Z,100460.69
2023-08-08T08:42:47.224Z,100464.25
2023-08-08T08:45:20.778Z,100464.84
2023-08-08T08:47:55.478Z,100479.00
2023-08-08T08:50:28.593Z,100468.25
2023-08-08T08:52:58.992Z,100465.44
2023-08-08T08:55:28.738Z,100457.09
2023-08-08T08:57:58.423Z,100451.97
2023-08-08T09:00:27.682Z,100460.16
2023-08-08T09:02:58.747Z,100463.13
2023-08-08T09:05:28.493Z,100453.16
2023-08-08T09:07:58.163Z,100454.78
2023-08-08T09:10:29.427Z,100455.13
2023-08-08T09:12:58.641Z,100461.53
2023-08-08T09:15:31.563Z,100454.38
2023-08-08T09:18:02.386Z,100448.97
2023-08-08T09:20:32.727Z,100440.22
2023-08-08T09:23:01.956Z,100438.28
2023-08-08T09:25:31.331Z,100433.50
2023-08-08T09:28:00.484Z,100434.31
2023-08-08T09:30:32.253Z,100425.03
2023-08-08T09:33:04.405Z,100434.94
2023-08-08T09:35:33.744Z,100434.50
2023-08-08T09:38:02.936Z,100434.69
2023-08-08T09:40:32.150Z,100419.88
2023-08-08T09:43:01.430Z,100428.16
2023-08-08T09:45:39.086Z,100443.72
2023-08-08T09:48:10.164Z,100427.56
2023-08-08T09:50:42.239Z,100441.94
2023-08-08T09:53:12.116Z,100443.56
2023-08-08T09:55:41.568Z,100440.56
2023-08-08T09:58:11.331Z,100443.84
2023-08-08T10:00:41.188Z,100435.69
2023-08-08T10:03:12.094Z,100435.16
2023-08-08T10:05:41.362Z,100427.41
2023-08-08T10:08:10.537Z,100425.91
2023-08-08T10:10:42.007Z,100421.91
2023-08-08T10:13:20.647Z,100429.50
2023-08-08T10:15:50.099Z,100417.78
2023-08-08T10:18:23.245Z,100416.63
2023-08-08T10:20:54.485Z,100426.22
2023-08-08T10:23:23.652Z,100420.81
2023-08-08T10:25:54.693Z,100423.25
2023-08-08T10:28:27.350Z,100422.19
2023-08-08T10:30:58.806Z,100420.66
2023-08-08T10:33:30.692Z,100419.09
2023-08-08T10:36:01.610Z,100424.69
2023-08-08T10:38:42.680Z,100428.63
2023-08-08T10:41:13.849Z,100426.44
2023-08-08T10:43:52.296Z,100415.81
2023-08-08T10:46:32.274Z,100415.97
2023-08-08T10:49:07.177Z,100420.13
2023-08-08T10:51:43.378Z,100427.25
2023-08-08T10:54:16.345Z,100439.56
2023-08-08T10:56:51.214Z,100444.88
2023-08-08T10:59:22.215Z,100443.75
2023-08-08T11:01:54.849Z,100456.63
2023-08-08T11:04:27.138Z,100460.22
2023-08-08T11:06:56.763Z,100456.88
2023-08-08T11:09:27.310Z,100429.56
2023-08-08T11:11:56.637Z,100431.00
2023-08-08T11:14:26.089Z,100410.06
2023-08-08T11:16:55.630Z,100398.97
2023-08-08T11:19:26.138Z,100410.44
2023-08-08T11:21:55.327Z,100427.44
2023-08-08T11:24:24.421Z,100414.69
2023-08-08T11:27:01.289Z,100414.59
2023-08-08T11:29:31.678Z,100418.63
2023-08-08T11:32:04.115Z,100405.03
2023-08-08T11:34:35.574Z,100408.13
2023-08-08T11:37:05.968Z,100397.94
2023-08-08T11:39:35.477Z,100405.13
2023-08-08T11:42:05.174Z,100399.34
2023-08-08T11:44:34.652Z,100391.19
2023-08-08T11:47:06.442Z,100409.06
2023-08-08T11:49:43.823Z,100400.88
2023-08-08T11:52:14.347Z,100402.19
2023-08-08T11:54:44.244Z,100401.13
2023-08-08T11:57:13.612Z,100401.19
2023-08-08T11:59:42.836Z,100400.59
2023-08-08T12:02:12.961Z,100396.88
2023-08-08T12:04:46.968Z,100384.91
2023-08-08T12:07:16.218Z,100388.69
2023-08-08T12:09:45.530Z,100375.25
2023-08-08T12:14:52.035Z,100398.41
2023-08-08T12:17:29.040Z,100403.91
2023-08-08T12:20:04.267Z,100384.75
2023-08-08T12:22:33.591Z,100377.16
2023-08-08T12:25:04.029Z,100396.59
2023-08-08T12:27:33.415Z,100378.75
2023-08-08T12:30:02.663Z,100381.34
2023-08-08T12:32:33.623Z,100393.09
2023-08-08T12:35:04.459Z,100386.03
2023-08-08T12:37:33.584Z,100375.31
2023-08-08T12:40:04.554Z,100366.06
2023-08-08T12:42:34.794Z,100366.19
2023-08-08T12:45:04.423Z,100381.75
2023-08-08T12:47:33.725Z,100350.28
2023-08-08T12:50:06.353Z,100378.19
2023-08-08T12:52:35.881Z,100351.09
2023-08-08T12:55:06.001Z,100341.63
2023-08-08T12:57:35.348Z,100378.47
2023-08-08T13:00:04.898Z,100370.81
2023-08-08T13:02:34.823Z,100387.31
2023-08-08T13:05:05.621Z,100396.22
2023-08-08T13:07:34.975Z,100394.06
2023-08-08T13:10:04.192Z,100416.50
2023-08-08T13:12:33.378Z,100409.41
2023-08-08T13:15:02.624Z,100408.41
2023-08-08T13:17:32.179Z,100402.16
2023-08-08T13:20:01.689Z,100399.41
2023-08-08T13:22:32.499Z,100391.97
2023-08-08T13:25:01.928Z,100395.75
2023-08-08T13:27:31.125Z,100382.25
2023-08-08T13:30:00.250Z,100391.72
2023-08-08T13:32:29.705Z,100398.31
2023-08-08T13:34:58.897Z,100397.59
2023-08-08T13:37:27.968Z,100401.44
2023-08-08T13:39:58.454Z,100395.69
2023-08-08T13:42:27.639Z,100415.69
2023-08-08T13:44:56.745Z,100461.50
2023-08-08T13:47:26.107Z,100455.03
2023-08-08T13:49:55.284Z,100469.25
2023-08-08T13:52:25.210Z,100473.44
2023-08-08T13:54:55.285Z,100484.69
2023-08-08T13:57:25.788Z,100476.56
2023-08-08T13:59:55.303Z,100477.38
2023-08-08T14:02:24.423Z,100448.97
2023-08-08T14:04:53.616Z,100444.50
2023-08-08T14:07:23.338Z,100457.34
2023-08-08T14:09:52.440Z,100449.84
2023-08-08T14:12:21.604Z,100457.22
2023-08-08T14:14:52.150Z,100458.44
2023-08-08T14:17:21.363Z,100471.28
2023-08-08T14:19:50.811Z,100464.41
2023-08-08T14:22:20.293Z,100443.53
2023-08-08T14:24:49.442Z,100451.47
2023-08-08T14:27:18.789Z,100455.47
2023-08-08T14:29:47.973Z,100458.94
2023-08-08T14:32:18.660Z,100458.41
2023-08-08T14:34:47.826Z,100441.47
2023-08-08T14:37:17.043Z,100455.75
2023-08-08T14:39:46.163Z,100466.00
2023-08-08T14:42:15.360Z,100459.34
2023-08-08T14:44:44.498Z,100468.19
2023-08-08T14:47:13.620Z,100466.56
2023-08-08T14:49:44.143Z,100468.53
2023-08-08T14:52:13.583Z,100463.78
2023-08-08T14:54:42.788Z,100468.84
2023-08-08T14:57:12.063Z,100459.13
2023-08-08T14:59:41.253Z,100460.03
2023-08-08T15:02:10.503Z,100456.28
2023-08-08T15:04:39.687Z,100469.09
2023-08-08T15:07:10.156Z,100481.22
2023-08-08T15:09:39.609Z,100489.38
2023-08-08T15:12:09.336Z,100499.50
2023-08-08T15:14:38.464Z,100511.00
2023-08-08T15:17:07.741Z,100518.41
2023-08-08T15:19:39.036Z,100559.59
2023-08-08T15:22:09.652Z,100561.25
2023-08-08T15:24:38.945Z,100542.97
2023-08-08T15:27:08.336Z,100572.50
2023-08-08T15:29:37.712Z,100563.88
2023-08-08T15:32:07.614Z,100578.81
2023-08-08T15:34:37.726Z,100566.06
2023-08-08T15:37:07.083Z,100568.69
2023-08-08T15:39:37.586Z,100567.63
2023-08-08T15:42:06.990Z,100564.53
2023-08-08T15:44:36.107Z,100571.66
2023-08-08T15:47:05.526Z,100574.19
2023-08-08T15:49:34.709Z,100574.41
2023-08-08T15:52:03.900Z,100567.56
2023-08-08T15:54:33.041Z,100572.78
2023-08-08T15:57:03.968Z,100566.91
2023-08-08T15:59:33.371Z,100568.00
2023-08-08T16:02:02.580Z,100564.66
2023-08-08T16:04:32.016Z,100565.22
2023-08-08T16:07:01.443Z,100561.50
2023-08-08T16:09:30.975Z,100575.06
2023-08-08T16:12:00.401Z,100552.31
2023-08-08T16:14:31.098Z,100576.78
2023-08-08T16:17:03.402Z,100572.34
2023-08-08T16:19:32.746Z,100579.72
2023-08-08T16:22:04.145Z,100590.09
2023-08-08T16:24:33.349Z,100545.03
2023-08-08T16:27:02.933Z,100562.63
2023-08-08T16:29:33.701Z,100563.91
2023-08-08T16:32:03.461Z,100563.53
2023-08-08T16:34:32.994Z,100563.03
2023-08-08T16:37:02.186Z,100561.56
2023-08-08T16:39:31.455Z,100571.69
2023-08-08T16:42:01.030Z,100575.59
2023-08-08T16:44:31.823Z,100571.34
2023-08-08T16:47:01.211Z,100574.53
2023-08-08T16:49:30.427Z,100577.84
2023-08-08T16:52:01.237Z,100582.25
2023-08-08T16:54:30.526Z,100582.25
2023-08-08T16:56:59.637Z,100569.31
2023-08-08T16:59:28.817Z,100585.72
2023-08-08T17:01:59.608Z,100584.13
2023-08-08T17:04:29.036Z,100593.06
2023-08-08T17:06:58.184Z,100579.69
2023-08-08T17:09:27.396Z,100589.50
2023-08-08T17:11:56.528Z,100592.47
2023-08-08T17:14:25.661Z,100581.97
2023-08-08T17:16:54.976Z,100566.75
2023-08-08T17:19:25.582Z,100584.28
2023-08-08T17:21:54.745Z,100576.47
2023-08-08T17:24:28.836Z,100579.59
2023-08-08T17:27:02.256Z,100588.66
2023-08-08T17:29:31.536Z,100599.59
2023-08-08T17:32:01.169Z,100591.09
2023-08-08T17:34:31.936Z,100591.78
2023-08-08T17:37:01.067Z,100582.34
2023-08-08T17:39:30.211Z,100580.06
2023-08-08T17:41:59.533Z,100574.28
2023-08-08T17:44:28.885Z,100570.25
2023-08-08T17:46:58.026Z,100564.31
2023-08-08T17:49:27.284Z,100573.72
2023-08-08T17:51:57.824Z,100576.03
2023-08-08T17:54:27.366Z,100566.00
2023-08-08T17:56:56.584Z,100567.03
2023-08-08T17:59:29.799Z,100552.50
2023-08-08T18:02:00.587Z,100552.25
2023-08-08T18:04:30.080Z,100563.56
2023-08-08T18:07:00.615Z,100559.88
2023-08-08T18:09:30.883Z,100566.13
2023-08-08T18:12:00.649Z,100563.53
2023-08-08T18:14:30.244Z,100573.72
2023-08-08T18:16:59.700Z,100578.31
2023-08-08T18:19:28.949Z,100573.03
2023-08-08T18:22:00.013Z,100586.50
2023-08-08T18:24:29.580Z,100580.53
2023-08-08T18:26:59.042Z,100578.25
2023-08-08T18:29:28.573Z,100593.16
2023-08-08T18:31:57.736Z,100581.94
2023-08-08T18:34:27.504Z,100583.31
2023-08-08T18:36:56.682Z,100588.53
2023-08-08T18:39:27.208Z,100586.00
2023-08-08T18:41:56.428Z,100585.66
2023-08-08T18:44:25.585Z,100590.63
2023-08-08T18:46:54.928Z,100592.84
2023-08-08T18:49:24.595Z,100586.91
2023-08-08T18:51:54.215Z,100601.56
2023-08-08T18:54:23.721Z,100598.56
2023-08-08T18:56:54.366Z,100598.94
2023-08-08T18:59:24.219Z,100597.44
2023-08-08T19:01:53.736Z,100599.88
2023-08-08T19:04:23.176Z,100604.78
2023-08-08T19:06:52.556Z,100597.19
2023-08-08T19:09:22.008Z,100606.38
2023-08-08T19:11:52.038Z,100599.94
2023-08-08T19:14:23.195Z,100607.00
2023-08-08T19:16:52.784Z,100600.69
2023-08-08T19:19:23.550Z,100608.66
2023-08-08T19:21:54.074Z,100603.34
2023-08-08T19:24:23.705Z,100611.38
2023-08-08T19:26:53.526Z,100612.00
2023-08-08T19:29:25.045Z,100604.56
2023-08-08T19:31:55.084Z,100613.75
2023-08-08T19:34:24.881Z,100611.94
2023-08-08T19:36:54.607Z,100619.16
2023-08-08T19:39:24.264Z,100601.91
2023-08-08T19:41:54.004Z,100612.47
2023-08-08T19:44:24.610Z,100603.47
2023-08-08T19:46:53.889Z,100608.09
2023-08-08T19:49:23.085Z,100605.88
2023-08-08T19:51:52.302Z,100612.38
2023-08-08T19:54:21.511Z,100606.72
2023-08-08T19:56:50.767Z,100616.50
2023-08-08T19:59:19.934Z,100613.22
2023-08-08T20:01:50.511Z,100617.66
2023-08-08T20:04:19.778Z,100620.19
2023-08-08T20:06:48.937Z,100623.72
2023-08-08T20:09:18.217Z,100613.03
2023-08-08T20:11:49.555Z,100617.56
2023-08-08T20:14:18.705Z,100618.97
2023-08-08T20:16:49.265Z,100621.16
2023-08-08T20:19:18.353Z,100630.47
2023-08-08T20:21:47.410Z,100637.09
2023-08-08T20:24:16.551Z,100623.78
2023-08-08T20:26:45.653Z,100632.84
2023-08-08T20:29:14.733Z,100627.50
2023-08-08T20:31:44.433Z,100625.59
2023-08-08T20:34:14.983Z,100633.41
2023-08-08T20:36:44.092Z,100626.13
2023-08-08T20:39:13.571Z,100644.56
2023-08-08T20:41:42.707Z,100634.78
2023-08-08T20:44:11.802Z,100641.84
2023-08-08T20:46:40.908Z,100642.50
2023-08-08T20:49:09.954Z,100650.84
2023-08-08T20:51:41.142Z,100649.22
2023-08-08T20:54:10.325Z,100644.78
2023-08-08T20:56:40.491Z,100652.75
2023-08-08T20:59:09.603Z,100652.22
2023-08-08T21:01:38.944Z,100637.56
2023-08-08T21:04:08.124Z,100652.22
2023-08-08T21:06:37.302Z,100655.97
2023-08-08T21:09:08.031Z,100664.00
2023-08-08T21:11:37.382Z,100655.88
2023-08-08T21:14:07.050Z,100660.19
2023-08-08T21:16:36.302Z,100663.97
2023-08-08T21:19:05.720Z,100666.59
2023-08-08T21:21:35.262Z,100661.69
2023-08-08T21:24:05.029Z,100667.03
2023-08-08T21:26:39.838Z,100672.81
2023-08-08T21:29:09.892Z,100670.19
2023-08-08T21:31:39.111Z,100663.13
2023-08-08T21:34:08.809Z,100675.28
2023-08-08T21:36:38.248Z,100669.94
2023-08-08T21:39:07.503Z,100673.66
2023-08-08T21:41:37.971Z,100672.28
2023-08-08T21:44:07.564Z,100674.75
2023-08-08T21:46:36.777Z,100674.75
2023-08-08T21:49:06.022Z,100677.69
2023-08-08T21:51:35.069Z,100688.53
2023-08-08T21:54:04.347Z,100685.34
2023-08-08T21:56:33.402Z,100679.91
2023-08-08T21:59:04.404Z,100678.44
2023-08-08T22:01:34.400Z,100672.88
2023-08-08T22:04:03.572Z,100671.38
2023-08-08T22:06:32.861Z,100675.78
2023-08-08T22:09:02.075Z,100678.44
2023-08-08T22:11:31.242Z,100672.63
2023-08-08T22:14:01.899Z,100667.38
2023-08-08T22:16:32.796Z,100670.72
2023-08-08T22:19:02.156Z,100663.41
2023-08-08T22:21:31.431Z,100659.94
2023-08-08T22:24:00.582Z,100674.53
2023-08-08T22:26:29.697Z,100668.56
2023-08-08T22:28:58.856Z,100670.75
2023-08-08T22:31:27.914Z,100677.69
2023-08-08T22:33:59.034Z,100673.41
2023-08-08T22:36:28.127Z,100679.50
2023-08-08T22:38:57.238Z,100679.78
2023-08-08T22:41:26.379Z,100674.38
2023-08-08T22:43:55.422Z,100675.50
2023-08-08T22:46:25.343Z,100674.22
2023-08-08T22:48:54.532Z,100670.31
2023-08-08T22:51:25.034Z,100662.75
2023-08-08T22:53:54.446Z,100664.53
2023-08-08T22:56:23.520Z,100671.16
2023-08-08T22:58:52.614Z,100660.22
2023-08-08T23:01:21.694Z,100665.84
2023-08-08T23:03:50.923Z,100670.84
2023-08-08T23:06:20.275Z,100666.22
2023-08-08T23:08:50.909Z,100670.00
2023-08-08T23:11:20.010Z,100658.00
2023-08-08T23:13:50.434Z,100660.88
2023-08-08T23:16:19.545Z,100669.78
2023-08-08T23:18:48.602Z,100673.91
2023-08-08T23:21:17.650Z,100668.25
2023-08-08T23:23:46.756Z,100657.38
2023-08-08T23:26:17.171Z,100667.66
2023-08-08T23:28:46.286Z,100675.34
2023-08-08T23:31:15.490Z,100677.56
2023-08-08T23:33:44.597Z,100680.59
2023-08-08T23:36:13.961Z,100681.16
2023-08-08T23:38:43.780Z,100685.56
2023-08-08T23:41:12.835Z,100696.50
2023-08-08T23:43:44.560Z,100691.97
2023-08-08T23:46:14.122Z,100696.69
2023-08-08T23:48:43.654Z,100700.84
2023-08-08T23:51:13.087Z,100696.69
2023-08-08T23:53:42.571Z,100705.13
2023-08-08T23:56:11.693Z,100704.28
2023-08-08T23:58:42.413Z,100704.56
